Time;durP1;ratioP1;P1;durP2;ratioP2;P2;SDS_P1;SDS_P2;PMS_P1;PMS_P2;Temp;Humidity;BMP_temperature;BMP_pressure;BME280_temperature;BME280_humidity;BME280_pressure;Samples;Min_cycle;Max_cycle;Signal;HPM_P1;HPM_P2
2022/01/05 00:02:26;;;;;;;;;;;;;;;;;;5062487;28;19952;-70
2022/01/05 00:04:55;;;;;;;;;;;;;;;;;;5065057;28;19928;-70
2022/01/05 00:07:26;;;;;;;;;;;;;;;;;;5064886;28;19981;-70
2022/01/05 00:09:55;;;;;;;;;;;;;;;;;;5066894;28;19931;-69
2022/01/05 00:12:25;;;;;;;;;;;;;;;;;;5052146;28;19928;-69
2022/01/05 00:14:56;;;;;;;;;;;;;;;;;;5060301;28;20487;-70
2022/01/05 00:17:28;;;;;;;;;;;;;;;;;;5065876;28;20342;-69
2022/01/05 00:19:58;;;;;;;;;;;;;;;;;;5068849;28;19928;-70
2022/01/05 00:22:28;;;;;;;;;;;;;;;;;;5066518;28;19929;-68
2022/01/05 00:25:00;;;;;;;;;;;;;;;;;;5061974;28;20001;-69
2022/01/05 00:27:29;;;;;;;;;;;;;;;;;;5063187;28;19924;-69
2022/01/05 00:30:02;;;;;;;;;;;;;;;;;;5066023;28;19924;-69
2022/01/05 00:32:31;;;;;;;;;;;;;;;;;;5062903;28;21514;-70
2022/01/05 00:35:00;;;;;;;;;;;;;;;;;;5062590;28;20412;-68
2022/01/05 00:37:29;;;;;;;;;;;;;;;;;;5061775;28;19932;-68
2022/01/05 00:40:12;;;;;;;;;;;;;;;;;;5067520;28;19924;-69
2022/01/05 00:42:41;;;;;;;;;;;;;;;;;;5063705;28;20281;-69
2022/01/05 00:45:11;;;;;;;;;;;;;;;;;;5064771;28;20516;-69
2022/01/05 00:47:40;;;;;;;;;;;;;;;;;;5065435;28;19979;-69
2022/01/05 00:50:09;;;;;;;;;;;;;;;;;;5064908;28;19924;-69
2022/01/05 00:52:40;;;;;;;;;;;;;;;;;;5050988;28;19925;-69
2022/01/05 00:55:12;;;;;;;;;;;;;;;;;;5066237;28;19936;-69
2022/01/05 00:57:42;;;;;;;;;;;;;;;;;;5060391;28;20468;-69
2022/01/05 01:00:11;;;;;;;;;;;;;;;;;;5067244;28;19961;-69
2022/01/05 01:02:40;;;;;;;;;;;;;;;;;;5053225;28;20626;-69
2022/01/05 01:05:09;;;;;;;;;;;;;;;;;;5061674;28;20570;-69
2022/01/05 01:07:39;;;;;;;;;;;;;;;;;;5063609;28;19981;-69
2022/01/05 01:10:09;;;;;;;;;;;;;;;;;;5060083;28;20303;-69
2022/01/05 01:12:40;;;;;;;;;;;;;;;;;;5060339;28;19928;-69
2022/01/05 01:15:09;;;;;;;;;;;;;;;;;;5066424;28;20421;-69
2022/01/05 01:17:42;;;;;;;;;;;;;;;;;;5064297;28;19939;-69
2022/01/05 01:20:09;;;;;;;;;;;;;;;;;;5064520;28;19955;-69
2022/01/05 01:22:41;;;;;;;;;;;;;;;;;;5058631;28;19924;-69
2022/01/05 01:25:10;;;;;;;;;;;;;;;;;;5062884;28;19925;-69
2022/01/05 01:27:43;;;;;;;;;;;;;;;;;;5067512;28;19928;-70
2022/01/05 01:30:10;;;;;;;;;;;;;;;;;;5062537;28;19925;-69
2022/01/05 01:32:41;;;;;;;;;;;;;;;;;;5062590;28;19930;-69
2022/01/05 01:35:09;;;;;;;;;;;;;;;;;;5040765;28;19936;-69
2022/01/05 01:37:39;;;;;;;;;;;;;;;;;;5050057;28;19924;-69
2022/01/05 01:40:10;;;;;;;;;;;;;;;;;;5041256;28;20266;-69
2022/01/05 01:42:40;;;;;;;;;;;;;;;;;;5026928;28;19926;-69
2022/01/05 01:45:09;;;;;;;;;;;;;;;;;;5042591;28;20546;-69
2022/01/05 01:47:40;;;;;;;;;;;;;;;;;;5036658;28;19928;-69
2022/01/05 01:50:11;;;;;;;;;;;;;;;;;;5053841;28;20562;-69
2022/01/05 01:52:43;;;;;;;;;;;;;;;;;;5065289;28;20679;-69
2022/01/05 01:55:12;;;;;;;;;;;;;;;;;;5067301;28;19924;-69
2022/01/05 01:57:42;;;;;;;;;;;;;;;;;;5069193;28;19925;-68
2022/01/05 02:00:17;;;;;;;;;;;;;;;;;;5074639;28;20362;-69
2022/01/05 02:02:44;;;;;;;;;;;;;;;;;;5064385;28;19932;-69
2022/01/05 02:05:17;;;;;;;;;;;;;;;;;;5057749;28;19924;-69
2022/01/05 02:07:51;;;;;;;;;;;;;;;;;;5055486;28;19973;-68
2022/01/05 02:10:24;;;;;;;;;;;;;;;;;;5060132;28;19924;-70
2022/01/05 02:12:54;;;;;;;;;;;;;;;;;;5060211;28;19932;-69
2022/01/05 02:15:25;;;;;;;;;;;;;;;;;;5064908;28;19925;-69
2022/01/05 02:20:32;;;;;;;;;;;;;;;;;;5062532;28;19932;-69
2022/01/05 02:23:02;;;;;;;;;;;;;;;;;;5059268;28;20336;-69
2022/01/05 02:25:33;;;;;;;;;;;;;;;;;;5065811;28;20346;-69
2022/01/05 02:28:03;;;;;;;;;;;;;;;;;;5064485;28;19943;-70
2022/01/05 02:30:34;;;;;;;;;;;;;;;;;;5064935;28;19924;-69
2022/01/05 02:33:05;;;;;;;;;;;;;;;;;;5062338;28;19939;-69
2022/01/05 02:35:34;;;;;;;;;;;;;;;;;;5064599;28;19947;-70
2022/01/05 02:38:04;;;;;;;;;;;;;;;;;;5058610;28;19932;-69
2022/01/05 02:40:36;;;;;;;;;;;;;;;;;;5062501;28;19928;-68
2022/01/05 02:43:05;;;;;;;;;;;;;;;;;;5062090;28;19932;-69
2022/01/05 02:45:33;;;;;;;;;;;;;;;;;;5067044;28;19973;-69
2022/01/05 02:48:04;;;;;;;;;;;;;;;;;;5059992;28;19924;-69
2022/01/05 02:50:34;;;;;;;;;;;;;;;;;;5058430;28;19938;-69
2022/01/05 02:53:04;;;;;;;;;;;;;;;;;;5060744;28;20091;-69
2022/01/05 02:55:35;;;;;;;;;;;;;;;;;;5062883;28;19985;-69
2022/01/05 02:58:06;;;;;;;;;;;;;;;;;;5059483;28;19942;-69
2022/01/05 03:00:39;;;;;;;;;;;;;;;;;;5059686;28;19925;-69
2022/01/05 03:03:08;;;;;;;;;;;;;;;;;;5047553;28;20365;-69
2022/01/05 03:05:37;;;;;;;;;;;;;;;;;;5064055;28;19932;-69
2022/01/05 03:08:07;;;;;;;;;;;;;;;;;;5055154;28;19924;-69
2022/01/05 03:10:36;;;;;;;;;;;;;;;;;;5065311;28;19924;-68
2022/01/05 03:13:16;;;;;;;;;;;;;;;;;;5062307;28;19939;-68
2022/01/05 03:15:45;;;;;;;;;;;;;;;;;;5067574;28;19925;-69
2022/01/05 03:18:16;;;;;;;;;;;;;;;;;;5043645;28;19924;-69
2022/01/05 03:20:49;;;;;;;;;;;;;;;;;;5062290;28;19929;-69
2022/01/05 03:23:16;;;;;;;;;;;;;;;;;;5068221;28;19925;-69
2022/01/05 03:25:46;;;;;;;;;;;;;;;;;;5060869;28;19970;-69
2022/01/05 03:28:17;;;;;;;;;;;;;;;;;;5068847;28;20392;-68
2022/01/05 03:30:48;;;;;;;;;;;;;;;;;;5063314;28;20488;-69
2022/01/05 03:33:21;;;;;;;;;;;;;;;;;;5059491;28;19935;-70
2022/01/05 03:36:10;;;;;;;;;;;;;;;;;;5067241;28;19925;-69
2022/01/05 03:38:53;;;;;;;;;;;;;;;;;;5063136;28;20013;-69
2022/01/05 03:41:27;;;;;;;;;;;;;;;;;;5063981;28;19952;-69
2022/01/05 03:43:59;;;;;;;;;;;;;;;;;;5069060;28;20328;-69
2022/01/05 03:46:31;;;;;;;;;;;;;;;;;;5066708;28;19924;-69
2022/01/05 03:49:01;;;;;;;;;;;;;;;;;;5063912;28;20297;-68
2022/01/05 03:51:32;;;;;;;;;;;;;;;;;;5058319;28;19925;-70
2022/01/05 03:53:59;;;;;;;;;;;;;;;;;;5064988;28;19938;-69
2022/01/05 03:56:31;;;;;;;;;;;;;;;;;;5060522;28;19929;-69
2022/01/05 03:59:00;;;;;;;;;;;;;;;;;;5065744;28;19924;-69
2022/01/05 04:01:29;;;;;;;;;;;;;;;;;;5066990;28;19924;-69
2022/01/05 04:03:58;;;;;;;;;;;;;;;;;;5066034;28;19936;-69
2022/01/05 04:06:29;;;;;;;;;;;;;;;;;;5064030;28;19924;-69
2022/01/05 04:09:00;;;;;;;;;;;;;;;;;;5068061;28;20192;-69
2022/01/05 04:11:27;;;;;;;;;;;;;;;;;;5066864;28;19948;-69
2022/01/05 04:13:58;;;;;;;;;;;;;;;;;;5063350;28;19982;-69
2022/01/05 04:16:29;;;;;;;;;;;;;;;;;;5068427;28;19935;-69
2022/01/05 04:18:58;;;;;;;;;;;;;;;;;;5063799;28;19935;-69
2022/01/05 04:21:27;;;;;;;;;;;;;;;;;;5068910;28;20564;-69
2022/01/05 04:23:56;;;;;;;;;;;;;;;;;;5065081;28;19928;-70
2022/01/05 04:26:27;;;;;;;;;;;;;;;;;;5064613;28;19929;-70
2022/01/05 04:28:55;;;;;;;;;;;;;;;;;;5063523;28;19924;-69
2022/01/05 04:31:26;;;;;;;;;;;;;;;;;;5066685;28;19986;-68
2022/01/05 04:33:59;;;;;;;;;;;;;;;;;;5062545;28;20345;-69
2022/01/05 04:36:51;;;;;;;;;;;;;;;;;;5057304;28;19963;-68
2022/01/05 04:39:24;;;;;;;;;;;;;;;;;;5058907;28;19978;-69
2022/01/05 04:41:55;;;;;;;;;;;;;;;;;;5066208;28;20464;-69
2022/01/05 04:44:25;;;;;;;;;;;;;;;;;;5060658;28;19959;-68
2022/01/05 04:46:55;;;;;;;;;;;;;;;;;;5064218;28;19925;-69
2022/01/05 04:49:27;;;;;;;;;;;;;;;;;;5065101;28;19924;-69
2022/01/05 04:51:55;;;;;;;;;;;;;;;;;;5064314;28;19936;-69
2022/01/05 04:54:23;;;;;;;;;;;;;;;;;;5066571;28;19928;-69
2022/01/05 04:56:53;;;;;;;;;;;;;;;;;;5063282;28;19924;-70
2022/01/05 04:59:22;;;;;;;;;;;;;;;;;;5058341;28;19928;-70
2022/01/05 05:01:50;;;;;;;;;;;;;;;;;;5062028;28;19981;-69
2022/01/05 05:04:19;;;;;;;;;;;;;;;;;;5059068;28;19935;-69
2022/01/05 05:06:50;;;;;;;;;;;;;;;;;;5062806;28;19942;-69
2022/01/05 05:09:19;;;;;;;;;;;;;;;;;;5061907;28;20265;-70
2022/01/05 05:11:51;;;;;;;;;;;;;;;;;;5064574;28;20401;-69
2022/01/05 05:14:21;;;;;;;;;;;;;;;;;;5059193;28;19925;-70
2022/01/05 05:16:49;;;;;;;;;;;;;;;;;;5055180;28;20338;-69
2022/01/05 05:19:22;;;;;;;;;;;;;;;;;;5053386;28;19946;-69
2022/01/05 05:21:51;;;;;;;;;;;;;;;;;;5064816;28;19932;-69
2022/01/05 05:24:21;;;;;;;;;;;;;;;;;;5058234;28;19969;-69
2022/01/05 05:26:49;;;;;;;;;;;;;;;;;;5058377;28;19943;-69
2022/01/05 05:29:19;;;;;;;;;;;;;;;;;;5067862;28;20400;-70
2022/01/05 05:31:49;;;;;;;;;;;;;;;;;;5065141;28;19928;-68
2022/01/05 05:34:16;;;;;;;;;;;;;;;;;;5063291;28;19924;-68
2022/01/05 05:36:46;;;;;;;;;;;;;;;;;;5059273;28;19981;-68
2022/01/05 05:39:15;;;;;;;;;;;;;;;;;;5064934;28;19924;-69
2022/01/05 05:41:50;;;;;;;;;;;;;;;;;;5046871;28;19936;-69
2022/01/05 05:44:22;;;;;;;;;;;;;;;;;;5055023;28;19936;-68
2022/01/05 05:47:11;;;;;;;;;;;;;;;;;;5059488;28;19957;-68
2022/01/05 05:49:58;;;;;;;;;;;;;;;;;;5053342;28;19977;-68
2022/01/05 05:52:28;;;;;;;;;;;;;;;;;;5064317;28;19928;-68
2022/01/05 05:54:56;;;;;;;;;;;;;;;;;;5062092;28;19925;-68
2022/01/05 05:57:43;;;;;;;;;;;;;;;;;;5062458;28;19951;-69
2022/01/05 06:00:12;;;;;;;;;;;;;;;;;;5065034;28;19993;-68
2022/01/05 06:02:42;;;;;;;;;;;;;;;;;;5062063;28;20010;-68
2022/01/05 06:05:14;;;;;;;;;;;;;;;;;;5066185;28;20481;-67
2022/01/05 06:07:45;;;;;;;;;;;;;;;;;;5056816;28;20354;-68
2022/01/05 06:10:15;;;;;;;;;;;;;;;;;;5063560;28;20370;-68
2022/01/05 06:12:45;;;;;;;;;;;;;;;;;;5045735;28;19935;-68
2022/01/05 06:15:16;;;;;;;;;;;;;;;;;;5062476;28;19924;-69
2022/01/05 06:17:44;;;;;;;;;;;;;;;;;;5053128;28;19932;-69
2022/01/05 06:20:15;;;;;;;;;;;;;;;;;;5058279;28;19924;-68
2022/01/05 06:22:45;;;;;;;;;;;;;;;;;;5063596;28;19924;-68
2022/01/05 06:25:13;;;;;;;;;;;;;;;;;;5057787;28;19981;-68
2022/01/05 06:27:41;;;;;;;;;;;;;;;;;;5044059;28;19950;-69
2022/01/05 06:30:11;;;;;;;;;;;;;;;;;;5064241;28;20010;-64
2022/01/05 06:32:41;;;;;;;;;;;;;;;;;;5066022;28;19939;-63
2022/01/05 06:35:12;;;;;;;;;;;;;;;;;;5064409;28;19924;-64
2022/01/05 06:37:40;;;;;;;;;;;;;;;;;;5057276;28;19928;-64
2022/01/05 06:40:23;;;;;;;;;;;;;;;;;;5054927;28;19960;-63
2022/01/05 06:42:54;;;;;;;;;;;;;;;;;;5052809;28;20386;-65
2022/01/05 06:45:25;;;;;;;;;;;;;;;;;;5056501;28;19984;-65
2022/01/05 06:47:56;;;;;;;;;;;;;;;;;;5061696;28;20255;-65
2022/01/05 06:50:37;;;;;;;;;;;;;;;;;;5051202;28;19936;-64
2022/01/05 06:53:05;;;;;;;;;;;;;;;;;;5065062;28;19932;-64
2022/01/05 06:55:37;;;;;;;;;;;;;;;;;;5058404;28;20426;-65
2022/01/05 06:58:10;;;;;;;;;;;;;;;;;;5061789;28;19944;-64
2022/01/05 07:00:41;;;;;;;;;;;;;;;;;;5048601;28;20315;-64
2022/01/05 07:03:11;;;;;;;;;;;;;;;;;;5063238;28;19924;-64
2022/01/05 07:05:48;;;;;;;;;;;;;;;;;;5047507;28;20291;-64
2022/01/05 07:08:18;;;;;;;;;;;;;;;;;;5053746;28;19925;-64
2022/01/05 07:10:50;;;;;;;;;;;;;;;;;;5057430;28;19936;-64
2022/01/05 07:13:20;;;;;;;;;;;;;;;;;;5061948;28;19930;-64
2022/01/05 07:15:51;;;;;;;;;;;;;;;;;;5059777;28;19932;-65
2022/01/05 07:18:22;;;;;;;;;;;;;;;;;;5060946;28;20569;-64
2022/01/05 07:20:53;;;;;;;;;;;;;;;;;;5061778;28;19924;-65
2022/01/05 07:23:23;;;;;;;;;;;;;;;;;;5059890;28;19933;-65
2022/01/05 07:25:59;;;;;;;;;;;;;;;;;;5063366;28;20397;-65
2022/01/05 07:28:32;;;;;;;;;;;;;;;;;;5057029;28;20019;-65
2022/01/05 07:31:01;;;;;;;;;;;;;;;;;;5068970;28;19924;-65
2022/01/05 07:33:31;;;;;;;;;;;;;;;;;;5046627;28;19933;-67
2022/01/05 07:36:02;;;;;;;;;;;;;;;;;;5063866;28;19932;-65
2022/01/05 07:38:32;;;;;;;;;;;;;;;;;;5047323;28;19925;-66
2022/01/05 07:41:04;;;;;;;;;;;;;;;;;;5074428;28;19980;-66
2022/01/05 07:43:33;;;;;;;;;;;;;;;;;;5062026;28;20346;-64
2022/01/05 07:46:06;;;;;;;;;;;;;;;;;;5074217;28;19954;-64
2022/01/05 07:48:36;;;;;;;;;;;;;;;;;;5060609;28;19940;-64
2022/01/05 07:51:05;;;;;;;;;;;;;;;;;;5072734;28;19943;-65
2022/01/05 07:53:42;;;;;;;;;;;;;;;;;;5055311;28;19932;-67
2022/01/05 07:56:18;;;;;;;;;;;;;;;;;;5066526;28;20476;-65
2022/01/05 07:58:54;;;;;;;;;;;;;;;;;;5061724;28;19977;-65
2022/01/05 08:01:29;;;;;;;;;;;;;;;;;;5063455;28;20273;-66
2022/01/05 08:04:02;;;;;;;;;;;;;;;;;;5059732;28;19925;-66
2022/01/05 08:06:31;;;;;;;;;;;;;;;;;;5065868;28;19936;-66
2022/01/05 08:09:03;;;;;;;;;;;;;;;;;;5076801;28;20349;-66
2022/01/05 08:11:38;;;;;;;;;;;;;;;;;;5063787;28;19932;-68
2022/01/05 08:14:08;;;;;;;;;;;;;;;;;;5063740;28;19989;-69
2022/01/05 08:16:39;;;;;;;;;;;;;;;;;;5062218;28;20035;-66
2022/01/05 08:19:06;;;;;;;;;;;;;;;;;;5067010;28;19936;-67
2022/01/05 08:21:37;;;;;;;;;;;;;;;;;;5051141;28;19925;-65
2022/01/05 08:24:07;;;;;;;;;;;;;;;;;;5072509;28;19925;-65
2022/01/05 08:26:39;;;;;;;;;;;;;;;;;;5057689;28;19932;-67
2022/01/05 08:29:11;;;;;;;;;;;;;;;;;;5067309;28;19934;-67
2022/01/05 08:31:44;;;;;;;;;;;;;;;;;;5066274;28;19931;-68
2022/01/05 08:34:14;;;;;;;;;;;;;;;;;;5065344;28;19924;-68
2022/01/05 08:36:50;;;;;;;;;;;;;;;;;;5053488;28;19929;-65
2022/01/05 08:39:20;;;;;;;;;;;;;;;;;;5066203;28;19990;-65
2022/01/05 08:41:53;;;;;;;;;;;;;;;;;;5061902;28;19932;-65
2022/01/05 08:44:23;;;;;;;;;;;;;;;;;;5062560;28;19931;-66
2022/01/05 08:46:54;;;;;;;;;;;;;;;;;;5062812;28;19932;-65
2022/01/05 08:49:25;;;;;;;;;;;;;;;;;;5062163;28;20369;-65
2022/01/05 08:51:54;;;;;;;;;;;;;;;;;;5065115;28;19935;-66
2022/01/05 08:54:25;;;;;;;;;;;;;;;;;;5060638;28;20259;-65
2022/01/05 08:56:56;;;;;;;;;;;;;;;;;;5052649;28;19924;-64
2022/01/05 08:59:26;;;;;;;;;;;;;;;;;;5060839;28;19939;-64
2022/01/05 09:01:56;;;;;;;;;;;;;;;;;;5061390;28;19925;-68
2022/01/05 09:04:25;;;;;;;;;;;;;;;;;;5063554;28;19928;-66
2022/01/05 09:06:53;;;;;;;;;;;;;;;;;;5063259;28;19924;-67
2022/01/05 09:09:20;;;;;;;;;;;;;;;;;;5065195;28;19924;-66
2022/01/05 09:11:48;;;;;;;;;;;;;;;;;;5058039;28;19932;-66
2022/01/05 09:14:17;;;;;;;;;;;;;;;;;;5062118;28;20397;-67
2022/01/05 09:16:48;;;;;;;;;;;;;;;;;;5065577;28;19925;-66
2022/01/05 09:19:20;;;;;;;;;;;;;;;;;;5059937;28;19925;-67
2022/01/05 09:21:49;;;;;;;;;;;;;;;;;;5060919;28;20366;-66
2022/01/05 09:24:40;;;;;;;;;;;;;;;;;;5058757;28;20350;-66
2022/01/05 09:27:08;;;;;;;;;;;;;;;;;;5064588;28;20583;-67
2022/01/05 09:29:41;;;;;;;;;;;;;;;;;;5061900;28;19992;-67
2022/01/05 09:32:15;;;;;;;;;;;;;;;;;;5059358;28;20050;-66
2022/01/05 09:34:45;;;;;;;;;;;;;;;;;;5060382;28;19928;-66
2022/01/05 09:37:31;;;;;;;;;;;;;;;;;;5060211;28;19936;-70
2022/01/05 09:42:50;;;;;;;;;;;;;;;;;;5058691;28;19933;-70
2022/01/05 09:45:21;;;;;;;;;;;;;;;;;;5060821;28;20336;-66
2022/01/05 09:47:48;;;;;;;;;;;;;;;;;;5064017;28;19932;-66
2022/01/05 09:50:18;;;;;;;;;;;;;;;;;;5060926;28;19928;-66
2022/01/05 09:52:49;;;;;;;;;;;;;;;;;;5059484;28;19924;-66
2022/01/05 09:55:21;;;;;;;;;;;;;;;;;;5064434;28;20419;-70
2022/01/05 09:57:54;;;;;;;;;;;;;;;;;;5059596;28;19924;-69
2022/01/05 10:00:24;;;;;;;;;;;;;;;;;;5068254;28;19932;-70
2022/01/05 10:02:56;;;;;;;;;;;;;;;;;;5052678;28;19931;-70
2022/01/05 10:05:26;;;;;;;;;;;;;;;;;;5058826;28;20327;-70
2022/01/05 10:07:54;;;;;;;;;;;;;;;;;;5058746;28;20511;-69
2022/01/05 10:10:23;;;;;;;;;;;;;;;;;;5065128;28;19932;-70
2022/01/05 10:12:54;;;;;;;;;;;;;;;;;;5058768;28;20575;-69
2022/01/05 10:15:24;;;;;;;;;;;;;;;;;;5064412;28;19933;-69
2022/01/05 10:17:53;;;;;;;;;;;;;;;;;;5062860;28;20319;-69
2022/01/05 10:20:24;;;;;;;;;;;;;;;;;;5058552;28;19989;-66
2022/01/05 10:22:55;;;;;;;;;;;;;;;;;;5052850;28;19977;-66
2022/01/05 10:25:29;;;;;;;;;;;;;;;;;;5055028;28;19941;-67
2022/01/05 10:28:05;;;;;;;;;;;;;;;;;;5054477;28;19924;-66
2022/01/05 10:30:36;;;;;;;;;;;;;;;;;;5052748;28;19925;-70
2022/01/05 10:33:08;;;;;;;;;;;;;;;;;;5059904;28;19940;-70
2022/01/05 10:35:38;;;;;;;;;;;;;;;;;;5055310;28;19981;-69
2022/01/05 10:38:09;;;;;;;;;;;;;;;;;;5052242;28;19937;-69
2022/01/05 10:40:37;;;;;;;;;;;;;;;;;;5054260;28;19932;-69
2022/01/05 10:43:06;;;;;;;;;;;;;;;;;;5062271;28;19939;-69
2022/01/05 10:45:37;;;;;;;;;;;;;;;;;;5062673;28;20554;-70
2022/01/05 10:48:04;;;;;;;;;;;;;;;;;;5056035;28;19928;-70
2022/01/05 10:50:33;;;;;;;;;;;;;;;;;;5055723;28;19940;-66
2022/01/05 10:53:01;;;;;;;;;;;;;;;;;;5059069;28;19939;-66
2022/01/05 10:55:32;;;;;;;;;;;;;;;;;;5060996;28;20026;-66
2022/01/05 10:58:06;;;;;;;;;;;;;;;;;;5063451;28;19928;-65
2022/01/05 11:00:36;;;;;;;;;;;;;;;;;;5059328;28;19924;-69
2022/01/05 11:03:20;;;;;;;;;;;;;;;;;;5063126;28;19924;-69
2022/01/05 11:05:56;;;;;;;;;;;;;;;;;;5062999;28;19924;-70
2022/01/05 11:08:26;;;;;;;;;;;;;;;;;;5059594;28;19932;-69
2022/01/05 11:10:56;;;;;;;;;;;;;;;;;;5061089;28;19932;-69
2022/01/05 11:13:23;;;;;;;;;;;;;;;;;;5056260;28;19924;-69
2022/01/05 11:15:52;;;;;;;;;;;;;;;;;;5063166;28;19935;-69
2022/01/05 11:18:24;;;;;;;;;;;;;;;;;;5058946;28;19932;-69
2022/01/05 11:20:55;;;;;;;;;;;;;;;;;;5061898;28;19924;-69
2022/01/05 11:23:23;;;;;;;;;;;;;;;;;;5057794;28;20258;-69
2022/01/05 11:25:55;;;;;;;;;;;;;;;;;;5059379;28;19928;-70
2022/01/05 11:28:24;;;;;;;;;;;;;;;;;;5062737;28;19935;-69
2022/01/05 11:30:53;;;;;;;;;;;;;;;;;;5058981;28;20493;-69
2022/01/05 11:33:22;;;;;;;;;;;;;;;;;;5059140;28;19939;-69
2022/01/05 11:35:53;;;;;;;;;;;;;;;;;;5019786;28;19933;-72
2022/01/05 11:38:22;;;;;;;;;;;;;;;;;;5043249;28;19928;-74
2022/01/05 11:40:55;;;;;;;;;;;;;;;;;;5043608;28;19944;-74
2022/01/05 11:43:30;;;;;;;;;;;;;;;;;;5048546;28;20279;-71
2022/01/05 11:46:28;;;;;;;;;;;;;;;;;;5044017;28;19997;-68
2022/01/05 11:49:01;;;;;;;;;;;;;;;;;;5035041;28;20443;-68
2022/01/05 11:51:36;;;;;;;;;;;;;;;;;;5043905;28;20278;-68
2022/01/05 11:54:06;;;;;;;;;;;;;;;;;;5045016;28;19928;-69
2022/01/05 11:56:37;;;;;;;;;;;;;;;;;;5041339;28;19924;-74
2022/01/05 11:59:12;;;;;;;;;;;;;;;;;;5045495;28;20342;-68
2022/01/05 12:01:41;;;;;;;;;;;;;;;;;;5040166;28;19933;-65
2022/01/05 12:04:13;;;;;;;;;;;;;;;;;;5042375;28;19932;-64
2022/01/05 12:06:44;;;;;;;;;;;;;;;;;;5041371;28;20249;-65
2022/01/05 12:09:15;;;;;;;;;;;;;;;;;;5039742;28;19924;-65
2022/01/05 12:11:43;;;;;;;;;;;;;;;;;;5044847;28;20369;-66
2022/01/05 12:14:16;;;;;;;;;;;;;;;;;;5044401;28;19924;-67
2022/01/05 12:16:46;;;;;;;;;;;;;;;;;;5037864;28;20394;-67
2022/01/05 12:19:16;;;;;;;;;;;;;;;;;;5039059;28;19928;-68
2022/01/05 12:21:48;;;;;;;;;;;;;;;;;;5044495;28;19925;-65
2022/01/05 12:24:18;;;;;;;;;;;;;;;;;;5049233;28;19935;-65
2022/01/05 12:26:48;;;;;;;;;;;;;;;;;;5038845;28;20301;-69
2022/01/05 12:29:18;;;;;;;;;;;;;;;;;;5049349;28;19929;-68
2022/01/05 12:31:45;;;;;;;;;;;;;;;;;;5041882;28;19933;-66
2022/01/05 12:34:15;;;;;;;;;;;;;;;;;;5044533;28;19978;-66
2022/01/05 12:36:46;;;;;;;;;;;;;;;;;;5041528;28;19925;-65
2022/01/05 12:39:20;;;;;;;;;;;;;;;;;;5048387;28;20387;-66
2022/01/05 12:41:49;;;;;;;;;;;;;;;;;;5044768;28;19928;-68
2022/01/05 12:44:19;;;;;;;;;;;;;;;;;;5047709;28;19932;-68
2022/01/05 12:47:01;;;;;;;;;;;;;;;;;;5040561;28;20025;-69
2022/01/05 12:49:45;;;;;;;;;;;;;;;;;;5035696;28;19932;-68
2022/01/05 12:52:16;;;;;;;;;;;;;;;;;;5039531;28;20346;-67
2022/01/05 12:54:47;;;;;;;;;;;;;;;;;;5039018;28;20241;-67
2022/01/05 12:57:32;;;;;;;;;;;;;;;;;;5042873;28;20458;-67
2022/01/05 13:00:07;;;;;;;;;;;;;;;;;;5040316;28;20005;-67
2022/01/05 13:02:35;;;;;;;;;;;;;;;;;;5038852;28;19938;-66
2022/01/05 13:05:08;;;;;;;;;;;;;;;;;;5040124;28;19929;-64
2022/01/05 13:07:41;;;;;;;;;;;;;;;;;;5038951;28;19968;-65
2022/01/05 13:10:14;;;;;;;;;;;;;;;;;;5046405;28;19933;-65
2022/01/05 13:12:47;;;;;;;;;;;;;;;;;;5035966;28;19925;-65
2022/01/05 13:15:18;;;;;;;;;;;;;;;;;;5037583;28;20309;-65
2022/01/05 13:17:47;;;;;;;;;;;;;;;;;;5040097;28;19943;-65
2022/01/05 13:20:18;;;;;;;;;;;;;;;;;;5034525;28;19925;-64
2022/01/05 13:22:50;;;;;;;;;;;;;;;;;;5039046;28;20386;-65
2022/01/05 13:25:22;;;;;;;;;;;;;;;;;;5032502;28;19931;-68
2022/01/05 13:27:53;;;;;;;;;;;;;;;;;;5041079;28;19929;-68
2022/01/05 13:30:24;;;;;;;;;;;;;;;;;;5043127;28;19928;-68
2022/01/05 13:32:55;;;;;;;;;;;;;;;;;;5040531;28;19929;-67
2022/01/05 13:35:27;;;;;;;;;;;;;;;;;;5062675;28;19931;-67
2022/01/05 13:37:59;;;;;;;;;;;;;;;;;;5066239;28;19973;-66
2022/01/05 13:40:30;;;;;;;;;;;;;;;;;;5063098;28;20354;-64
2022/01/05 13:43:03;;;;;;;;;;;;;;;;;;5062920;28;20457;-64
2022/01/05 13:45:38;;;;;;;;;;;;;;;;;;5063008;28;20614;-65
2022/01/05 13:48:10;;;;;;;;;;;;;;;;;;5043752;28;19924;-65
2022/01/05 13:50:40;;;;;;;;;;;;;;;;;;5058300;28;19932;-64
2022/01/05 13:53:10;;;;;;;;;;;;;;;;;;5048873;28;19939;-65
2022/01/05 13:55:40;;;;;;;;;;;;;;;;;;5055651;28;19952;-67
2022/01/05 13:58:12;;;;;;;;;;;;;;;;;;5054246;28;19982;-68
2022/01/05 14:00:41;;;;;;;;;;;;;;;;;;5053845;28;19925;-69
2022/01/05 14:03:10;;;;;;;;;;;;;;;;;;5063368;28;19924;-69
2022/01/05 14:05:43;;;;;;;;;;;;;;;;;;5064323;28;19943;-68
2022/01/05 14:08:13;;;;;;;;;;;;;;;;;;5062794;28;19929;-68
2022/01/05 14:10:45;;;;;;;;;;;;;;;;;;5062445;28;19940;-68
2022/01/05 14:13:20;;;;;;;;;;;;;;;;;;5059929;28;19933;-66
2022/01/05 14:15:51;;;;;;;;;;;;;;;;;;5060527;28;20401;-66
2022/01/05 14:18:22;;;;;;;;;;;;;;;;;;5051613;28;19958;-66
2022/01/05 14:20:52;;;;;;;;;;;;;;;;;;5051282;28;20302;-67
2022/01/05 14:23:20;;;;;;;;;;;;;;;;;;5063802;28;19932;-67
2022/01/05 14:25:51;;;;;;;;;;;;;;;;;;5065549;28;19940;-67
2022/01/05 14:28:24;;;;;;;;;;;;;;;;;;5060207;28;19950;-68
2022/01/05 14:30:57;;;;;;;;;;;;;;;;;;5062632;28;19951;-67
2022/01/05 14:33:27;;;;;;;;;;;;;;;;;;5064987;28;20486;-67
2022/01/05 14:35:58;;;;;;;;;;;;;;;;;;5044755;28;19928;-66
2022/01/05 14:38:29;;;;;;;;;;;;;;;;;;5051840;28;19928;-66
2022/01/05 14:40:57;;;;;;;;;;;;;;;;;;5059766;28;19924;-67
2022/01/05 14:43:28;;;;;;;;;;;;;;;;;;5053552;28;19932;-67
2022/01/05 14:45:59;;;;;;;;;;;;;;;;;;5056461;28;20408;-67
2022/01/05 14:48:32;;;;;;;;;;;;;;;;;;5056089;28;19981;-67
2022/01/05 14:51:03;;;;;;;;;;;;;;;;;;5053936;28;19971;-68
2022/01/05 14:53:33;;;;;;;;;;;;;;;;;;5054337;28;19944;-68
2022/01/05 14:56:09;;;;;;;;;;;;;;;;;;5058061;28;19983;-66
2022/01/05 14:58:40;;;;;;;;;;;;;;;;;;5052607;28;19932;-66
2022/01/05 15:01:09;;;;;;;;;;;;;;;;;;5057445;28;19989;-65
2022/01/05 15:03:39;;;;;;;;;;;;;;;;;;5059516;28;19924;-66
2022/01/05 15:06:09;;;;;;;;;;;;;;;;;;5058602;28;20412;-65
2022/01/05 15:08:40;;;;;;;;;;;;;;;;;;5061189;28;20346;-66
2022/01/05 15:11:07;;;;;;;;;;;;;;;;;;5064621;28;20428;-69
2022/01/05 15:13:38;;;;;;;;;;;;;;;;;;5053043;28;20378;-68
2022/01/05 15:16:07;;;;;;;;;;;;;;;;;;5061726;28;19928;-65
2022/01/05 15:18:39;;;;;;;;;;;;;;;;;;5052603;28;19963;-64
2022/01/05 15:21:14;;;;;;;;;;;;;;;;;;5059008;28;19932;-64
2022/01/05 15:23:45;;;;;;;;;;;;;;;;;;5060120;28;19932;-65
2022/01/05 15:26:16;;;;;;;;;;;;;;;;;;5053117;28;19924;-66
2022/01/05 15:28:47;;;;;;;;;;;;;;;;;;5057420;28;19940;-65
2022/01/05 15:31:16;;;;;;;;;;;;;;;;;;5064574;28;19994;-63
2022/01/05 15:33:47;;;;;;;;;;;;;;;;;;5051509;28;19925;-64
2022/01/05 15:36:19;;;;;;;;;;;;;;;;;;5044503;28;19925;-65
2022/01/05 15:38:47;;;;;;;;;;;;;;;;;;5036495;28;20506;-64
2022/01/05 15:41:15;;;;;;;;;;;;;;;;;;5052212;28;19999;-67
2022/01/05 15:43:45;;;;;;;;;;;;;;;;;;5044049;28;19971;-68
2022/01/05 15:46:15;;;;;;;;;;;;;;;;;;5051092;28;19951;-67
2022/01/05 15:48:50;;;;;;;;;;;;;;;;;;5035047;28;20350;-67
2022/01/05 15:51:21;;;;;;;;;;;;;;;;;;5056878;28;19929;-68
2022/01/05 15:54:03;;;;;;;;;;;;;;;;;;5043693;28;20044;-68
2022/01/05 15:56:41;;;;;;;;;;;;;;;;;;5051218;28;19932;-68
2022/01/05 16:02:03;;;;;;;;;;;;;;;;;;5038784;28;19932;-68
2022/01/05 16:04:35;;;;;;;;;;;;;;;;;;5039077;28;19946;-68
2022/01/05 16:07:07;;;;;;;;;;;;;;;;;;5038214;28;19932;-68
2022/01/05 16:09:38;;;;;;;;;;;;;;;;;;5043872;28;19929;-68
2022/01/05 16:12:10;;;;;;;;;;;;;;;;;;5041390;28;20054;-68
2022/01/05 16:14:38;;;;;;;;;;;;;;;;;;5040805;28;19925;-68
2022/01/05 16:17:06;;;;;;;;;;;;;;;;;;5039966;28;20021;-67
2022/01/05 16:19:36;;;;;;;;;;;;;;;;;;5042758;28;19925;-68
2022/01/05 16:22:05;;;;;;;;;;;;;;;;;;5042789;28;19939;-68
2022/01/05 16:24:33;;;;;;;;;;;;;;;;;;5042717;28;19929;-68
2022/01/05 16:27:02;;;;;;;;;;;;;;;;;;5043696;28;19932;-69
2022/01/05 16:29:34;;;;;;;;;;;;;;;;;;5041471;28;19940;-67
2022/01/05 16:32:10;;;;;;;;;;;;;;;;;;5042147;28;20003;-68
2022/01/05 16:34:41;;;;;;;;;;;;;;;;;;5040703;28;19943;-67
2022/01/05 16:37:11;;;;;;;;;;;;;;;;;;5036709;28;19933;-68
2022/01/05 16:39:40;;;;;;;;;;;;;;;;;;5039922;28;19933;-67
2022/01/05 16:42:11;;;;;;;;;;;;;;;;;;5043174;28;19972;-68
2022/01/05 16:44:42;;;;;;;;;;;;;;;;;;5036849;28;19928;-68
2022/01/05 16:47:14;;;;;;;;;;;;;;;;;;5041994;28;19935;-68
2022/01/05 16:49:43;;;;;;;;;;;;;;;;;;5043783;28;19929;-67
2022/01/05 16:52:15;;;;;;;;;;;;;;;;;;5038285;28;19933;-67
2022/01/05 16:54:50;;;;;;;;;;;;;;;;;;5046077;28;19924;-68
2022/01/05 17:00:25;;;;;;;;;;;;;;;;;;5047669;28;19932;-69
2022/01/05 17:02:57;;;;;;;;;;;;;;;;;;5040151;28;19925;-68
2022/01/05 17:05:33;;;;;;;;;;;;;;;;;;5040727;28;19983;-68
2022/01/05 17:08:14;;;;;;;;;;;;;;;;;;5033568;28;20033;-68
2022/01/05 17:10:45;;;;;;;;;;;;;;;;;;5031273;28;19929;-68
2022/01/05 17:13:18;;;;;;;;;;;;;;;;;;5041286;28;19932;-68
2022/01/05 17:15:47;;;;;;;;;;;;;;;;;;5040915;28;19936;-68
2022/01/05 17:18:22;;;;;;;;;;;;;;;;;;5041865;28;19925;-68
2022/01/05 17:21:01;;;;;;;;;;;;;;;;;;5041340;28;19924;-68
2022/01/05 17:23:30;;;;;;;;;;;;;;;;;;5041305;28;19925;-67
2022/01/05 17:25:59;;;;;;;;;;;;;;;;;;5042007;28;19983;-67